sensor_id;sensor_type;location;lat;lon;timestamp;temperature;humidity
16477;DHT22;8349;50.928;6.376;2022-09-09T00:01:54;15.60;99.90
16477;DHT22;8349;50.928;6.376;2022-09-09T00:04:27;15.50;99.90
16477;DHT22;8349;50.928;6.376;2022-09-09T00:06:57;15.40;99.90
16477;DHT22;8349;50.928;6.376;2022-09-09T00:09:26;15.30;99.90
16477;DHT22;8349;50.928;6.376;2022-09-09T00:11:54;15.20;99.90
16477;DHT22;8349;50.928;6.376;2022-09-09T00:14:26;15.10;99.90
16477;DHT22;8349;50.928;6.376;2022-09-09T00:16:58;15.10;99.90
16477;DHT22;8349;50.928;6.376;2022-09-09T00:19:29;15.00;99.90
16477;DHT22;8349;50.928;6.376;2022-09-09T00:22:02;15.00;99.90
16477;DHT22;8349;50.928;6.376;2022-09-09T00:24:33;15.00;99.90
16477;DHT22;8349;50.928;6.376;2022-09-09T00:27:04;15.10;99.90
16477;DHT22;8349;50.928;6.376;2022-09-09T00:29:33;15.10;99.90
16477;DHT22;8349;50.928;6.376;2022-09-09T00:32:07;15.10;99.90
16477;DHT22;8349;50.928;6.376;2022-09-09T00:34:36;15.10;99.90
16477;DHT22;8349;50.928;6.376;2022-09-09T00:37:07;15.00;99.90
16477;DHT22;8349;50.928;6.376;2022-09-09T00:39:36;15.10;99.90
16477;DHT22;8349;50.928;6.376;2022-09-09T00:42:08;15.00;99.90
16477;DHT22;8349;50.928;6.376;2022-09-09T00:44:38;14.90;99.90
16477;DHT22;8349;50.928;6.376;2022-09-09T00:47:17;14.90;99.90
16477;DHT22;8349;50.928;6.376;2022-09-09T00:49:51;14.90;99.90
16477;DHT22;8349;50.928;6.376;2022-09-09T00:52:26;14.90;99.90
16477;DHT22;8349;50.928;6.376;2022-09-09T00:54:58;15.00;99.90
16477;DHT22;8349;50.928;6.376;2022-09-09T00:57:29;15.00;99.90
16477;DHT22;8349;50.928;6.376;2022-09-09T00:59:58;14.90;99.90
16477;DHT22;8349;50.928;6.376;2022-09-09T01:02:26;14.90;99.90
16477;DHT22;8349;50.928;6.376;2022-09-09T01:04:55;14.90;99.90
16477;DHT22;8349;50.928;6.376;2022-09-09T01:07:24;15.00;99.90
16477;DHT22;8349;50.928;6.376;2022-09-09T01:09:52;15.00;99.90
16477;DHT22;8349;50.928;6.376;2022-09-09T01:12:24;15.00;99.90
16477;DHT22;8349;50.928;6.376;2022-09-09T01:14:56;15.10;99.90
16477;DHT22;8349;50.928;6.376;2022-09-09T01:17:25;15.00;99.90
16477;DHT22;8349;50.928;6.376;2022-09-09T01:20:04;15.00;99.90
16477;DHT22;8349;50.928;6.376;2022-09-09T01:22:44;15.00;99.90
16477;DHT22;8349;50.928;6.376;2022-09-09T01:25:18;15.00;99.90
16477;DHT22;8349;50.928;6.376;2022-09-09T01:27:56;15.00;99.90
16477;DHT22;8349;50.928;6.376;2022-09-09T01:30:24;15.00;99.90
16477;DHT22;8349;50.928;6.376;2022-09-09T01:32:53;15.00;99.90
16477;DHT22;8349;50.928;6.376;2022-09-09T01:35:26;15.00;99.90
16477;DHT22;8349;50.928;6.376;2022-09-09T01:37:57;14.90;99.90
16477;DHT22;8349;50.928;6.376;2022-09-09T01:40:24;15.00;99.90
16477;DHT22;8349;50.928;6.376;2022-09-09T01:42:53;14.90;99.90
16477;DHT22;8349;50.928;6.376;2022-09-09T01:45:21;14.90;99.90
16477;DHT22;8349;50.928;6.376;2022-09-09T01:47:48;14.90;99.90
16477;DHT22;8349;50.928;6.376;2022-09-09T01:50:20;14.90;99.90
16477;DHT22;8349;50.928;6.376;2022-09-09T01:52:49;14.90;99.90
16477;DHT22;8349;50.928;6.376;2022-09-09T01:55:19;14.90;99.90
16477;DHT22;8349;50.928;6.376;2022-09-09T01:57:52;14.90;99.90
16477;DHT22;8349;50.928;6.376;2022-09-09T02:00:24;14.90;99.90
16477;DHT22;8349;50.928;6.376;2022-09-09T02:02:58;15.00;99.90
16477;DHT22;8349;50.928;6.376;2022-09-09T02:05:36;14.90;99.90
16477;DHT22;8349;50.928;6.376;2022-09-09T02:08:08;14.90;99.90
16477;DHT22;8349;50.928;6.376;2022-09-09T02:10:53;15.00;99.90
16477;DHT22;8349;50.928;6.376;2022-09-09T02:13:34;15.00;99.90
16477;DHT22;8349;50.928;6.376;2022-09-09T02:16:07;15.10;99.90
16477;DHT22;8349;50.928;6.376;2022-09-09T02:18:35;15.20;99.90
16477;DHT22;8349;50.928;6.376;2022-09-09T02:21:04;15.20;99.90
16477;DHT22;8349;50.928;6.376;2022-09-09T02:23:32;15.20;99.90
16477;DHT22;8349;50.928;6.376;2022-09-09T02:26:03;15.20;99.90
16477;DHT22;8349;50.928;6.376;2022-09-09T02:28:31;15.20;99.90
16477;DHT22;8349;50.928;6.376;2022-09-09T02:30:58;15.20;99.90
16477;DHT22;8349;50.928;6.376;2022-09-09T02:33:35;15.20;99.90
16477;DHT22;8349;50.928;6.376;2022-09-09T02:36:03;15.30;99.90
16477;DHT22;8349;50.928;6.376;2022-09-09T02:38:34;15.30;99.90
16477;DHT22;8349;50.928;6.376;2022-09-09T02:41:08;15.30;99.90
16477;DHT22;8349;50.928;6.376;2022-09-09T02:43:35;15.30;99.90
16477;DHT22;8349;50.928;6.376;2022-09-09T02:46:08;15.40;99.90
16477;DHT22;8349;50.928;6.376;2022-09-09T02:48:39;15.40;99.90
16477;DHT22;8349;50.928;6.376;2022-09-09T02:51:12;15.40;99.90
16477;DHT22;8349;50.928;6.376;2022-09-09T02:53:43;15.40;99.90
16477;DHT22;8349;50.928;6.376;2022-09-09T02:56:13;15.40;99.90
16477;DHT22;8349;50.928;6.376;2022-09-09T02:58:43;15.40;99.90
16477;DHT22;8349;50.928;6.376;2022-09-09T03:01:10;15.40;99.90
16477;DHT22;8349;50.928;6.376;2022-09-09T03:03:38;15.40;99.90
16477;DHT22;8349;50.928;6.376;2022-09-09T03:06:10;15.50;99.90
16477;DHT22;8349;50.928;6.376;2022-09-09T03:08:38;15.50;99.90
16477;DHT22;8349;50.928;6.376;2022-09-09T03:11:05;15.60;99.90
16477;DHT22;8349;50.928;6.376;2022-09-09T03:13:35;15.60;99.90
16477;DHT22;8349;50.928;6.376;2022-09-09T03:16:03;15.70;99.90
16477;DHT22;8349;50.928;6.376;2022-09-09T03:18:34;15.70;99.90
16477;DHT22;8349;50.928;6.376;2022-09-09T03:21:03;15.80;99.90
16477;DHT22;8349;50.928;6.376;2022-09-09T03:23:29;15.80;99.90
16477;DHT22;8349;50.928;6.376;2022-09-09T03:26:00;15.80;99.90
16477;DHT22;8349;50.928;6.376;2022-09-09T03:28:37;15.80;99.90
16477;DHT22;8349;50.928;6.376;2022-09-09T03:31:05;15.80;99.90
16477;DHT22;8349;50.928;6.376;2022-09-09T03:33:39;15.90;99.90
16477;DHT22;8349;50.928;6.376;2022-09-09T03:36:09;15.90;99.90
16477;DHT22;8349;50.928;6.376;2022-09-09T03:38:36;15.80;99.90
16477;DHT22;8349;50.928;6.376;2022-09-09T03:41:02;15.80;99.90
16477;DHT22;8349;50.928;6.376;2022-09-09T03:43:33;15.80;99.90
16477;DHT22;8349;50.928;6.376;2022-09-09T03:46:00;15.80;99.90
16477;DHT22;8349;50.928;6.376;2022-09-09T03:48:28;15.80;99.90
16477;DHT22;8349;50.928;6.376;2022-09-09T03:50:55;15.70;99.90
16477;DHT22;8349;50.928;6.376;2022-09-09T03:53:25;15.70;99.90
16477;DHT22;8349;50.928;6.376;2022-09-09T03:55:52;15.70;99.90
16477;DHT22;8349;50.928;6.376;2022-09-09T03:58:21;15.60;99.90
16477;DHT22;8349;50.928;6.376;2022-09-09T04:00:53;15.60;99.90
16477;DHT22;8349;50.928;6.376;2022-09-09T04:03:20;15.60;99.90
16477;DHT22;8349;50.928;6.376;2022-09-09T04:05:48;15.60;99.90
16477;DHT22;8349;50.928;6.376;2022-09-09T04:08:15;15.60;99.90
16477;DHT22;8349;50.928;6.376;2022-09-09T04:10:43;15.70;99.90
16477;DHT22;8349;50.928;6.376;2022-09-09T04:13:11;15.70;99.90
16477;DHT22;8349;50.928;6.376;2022-09-09T04:15:40;15.70;99.90
16477;DHT22;8349;50.928;6.376;2022-09-09T04:18:07;15.80;99.90
16477;DHT22;8349;50.928;6.376;2022-09-09T04:20:34;15.80;99.90
16477;DHT22;8349;50.928;6.376;2022-09-09T04:23:01;15.90;99.90
16477;DHT22;8349;50.928;6.376;2022-09-09T04:25:28;15.90;99.90
16477;DHT22;8349;50.928;6.376;2022-09-09T04:27:57;15.80;99.90
16477;DHT22;8349;50.928;6.376;2022-09-09T04:30:25;15.90;99.90
16477;DHT22;8349;50.928;6.376;2022-09-09T04:32:52;15.90;99.90
16477;DHT22;8349;50.928;6.376;2022-09-09T04:35:19;15.90;99.90
16477;DHT22;8349;50.928;6.376;2022-09-09T04:37:46;15.90;99.90
16477;DHT22;8349;50.928;6.376;2022-09-09T04:40:13;15.90;99.90
16477;DHT22;8349;50.928;6.376;2022-09-09T04:42:41;15.90;99.90
16477;DHT22;8349;50.928;6.376;2022-09-09T04:45:11;15.90;99.90
16477;DHT22;8349;50.928;6.376;2022-09-09T04:47:39;15.90;99.90
16477;DHT22;8349;50.928;6.376;2022-09-09T04:50:06;15.90;99.90
16477;DHT22;8349;50.928;6.376;2022-09-09T04:52:34;15.90;99.90
16477;DHT22;8349;50.928;6.376;2022-09-09T04:55:01;15.90;99.90
16477;DHT22;8349;50.928;6.376;2022-09-09T04:57:29;15.90;99.90
16477;DHT22;8349;50.928;6.376;2022-09-09T04:59:57;15.90;99.90
16477;DHT22;8349;50.928;6.376;2022-09-09T05:02:28;15.90;99.90
16477;DHT22;8349;50.928;6.376;2022-09-09T05:04:57;15.90;99.90
16477;DHT22;8349;50.928;6.376;2022-09-09T05:07:24;15.90;99.90
16477;DHT22;8349;50.928;6.376;2022-09-09T05:09:52;15.90;99.90
16477;DHT22;8349;50.928;6.376;2022-09-09T05:12:19;15.90;99.90
16477;DHT22;8349;50.928;6.376;2022-09-09T05:14:50;16.00;99.90
16477;DHT22;8349;50.928;6.376;2022-09-09T05:17:17;15.90;99.90
16477;DHT22;8349;50.928;6.376;2022-09-09T05:19:45;15.90;99.90
16477;DHT22;8349;50.928;6.376;2022-09-09T05:22:13;15.90;99.90
16477;DHT22;8349;50.928;6.376;2022-09-09T05:24:47;15.90;99.90
16477;DHT22;8349;50.928;6.376;2022-09-09T05:27:16;15.90;99.90
16477;DHT22;8349;50.928;6.376;2022-09-09T05:29:43;15.90;99.90
16477;DHT22;8349;50.928;6.376;2022-09-09T05:32:10;16.00;99.90
16477;DHT22;8349;50.928;6.376;2022-09-09T05:34:39;16.00;99.90
16477;DHT22;8349;50.928;6.376;2022-09-09T05:37:07;16.00;99.90
16477;DHT22;8349;50.928;6.376;2022-09-09T05:39:36;16.00;99.90
16477;DHT22;8349;50.928;6.376;2022-09-09T05:42:03;16.00;99.90
16477;DHT22;8349;50.928;6.376;2022-09-09T05:44:32;16.00;99.90
16477;DHT22;8349;50.928;6.376;2022-09-09T05:47:00;16.10;99.90
16477;DHT22;8349;50.928;6.376;2022-09-09T05:49:26;16.10;99.90
16477;DHT22;8349;50.928;6.376;2022-09-09T05:51:53;16.10;99.90
16477;DHT22;8349;50.928;6.376;2022-09-09T05:54:23;16.10;99.90
16477;DHT22;8349;50.928;6.376;2022-09-09T05:56:52;16.10;99.90
16477;DHT22;8349;50.928;6.376;2022-09-09T05:59:19;16.10;99.90
16477;DHT22;8349;50.928;6.376;2022-09-09T06:01:46;16.10;99.90
16477;DHT22;8349;50.928;6.376;2022-09-09T06:04:28;16.20;99.90
16477;DHT22;8349;50.928;6.376;2022-09-09T06:06:55;16.20;99.90
16477;DHT22;8349;50.928;6.376;2022-09-09T06:09:24;16.20;99.90
16477;DHT22;8349;50.928;6.376;2022-09-09T06:11:51;16.30;99.90
16477;DHT22;8349;50.928;6.376;2022-09-09T06:14:19;16.30;99.90
16477;DHT22;8349;50.928;6.376;2022-09-09T06:16:48;16.30;99.90
16477;DHT22;8349;50.928;6.376;2022-09-09T06:19:23;16.40;99.90
16477;DHT22;8349;50.928;6.376;2022-09-09T06:21:52;16.50;99.90
16477;DHT22;8349;50.928;6.376;2022-09-09T06:24:20;16.50;99.90
16477;DHT22;8349;50.928;6.376;2022-09-09T06:26:49;16.50;99.90
16477;DHT22;8349;50.928;6.376;2022-09-09T06:29:20;16.50;99.90
16477;DHT22;8349;50.928;6.376;2022-09-09T06:31:47;16.50;99.90
16477;DHT22;8349;50.928;6.376;2022-09-09T06:34:19;16.50;99.90
16477;DHT22;8349;50.928;6.376;2022-09-09T06:36:49;16.50;99.90
16477;DHT22;8349;50.928;6.376;2022-09-09T06:39:17;16.40;99.90
16477;DHT22;8349;50.928;6.376;2022-09-09T06:41:44;16.40;99.90
16477;DHT22;8349;50.928;6.376;2022-09-09T06:44:35;16.40;99.90
16477;DHT22;8349;50.928;6.376;2022-09-09T06:47:05;16.50;99.90
16477;DHT22;8349;50.928;6.376;2022-09-09T06:49:33;16.50;99.90
16477;DHT22;8349;50.928;6.376;2022-09-09T06:52:02;16.50;99.90
16477;DHT22;8349;50.928;6.376;2022-09-09T06:54:30;16.60;99.90
16477;DHT22;8349;50.928;6.376;2022-09-09T06:56:57;16.70;99.90
16477;DHT22;8349;50.928;6.376;2022-09-09T06:59:25;16.70;99.90
16477;DHT22;8349;50.928;6.376;2022-09-09T07:01:55;16.70;99.90
16477;DHT22;8349;50.928;6.376;2022-09-09T07:04:23;16.80;99.90
16477;DHT22;8349;50.928;6.376;2022-09-09T07:06:50;16.80;99.90
16477;DHT22;8349;50.928;6.376;2022-09-09T07:09:22;16.90;99.90
16477;DHT22;8349;50.928;6.376;2022-09-09T07:11:51;16.90;99.90
16477;DHT22;8349;50.928;6.376;2022-09-09T07:14:20;17.00;99.90
16477;DHT22;8349;50.928;6.376;2022-09-09T07:16:52;17.10;99.90
16477;DHT22;8349;50.928;6.376;2022-09-09T07:19:21;17.30;99.90
16477;DHT22;8349;50.928;6.376;2022-09-09T07:21:51;17.40;99.90
16477;DHT22;8349;50.928;6.376;2022-09-09T07:24:20;17.50;99.90
16477;DHT22;8349;50.928;6.376;2022-09-09T07:26:48;17.60;99.90
16477;DHT22;8349;50.928;6.376;2022-09-09T07:29:15;17.70;99.90
16477;DHT22;8349;50.928;6.376;2022-09-09T07:31:43;17.70;99.90
16477;DHT22;8349;50.928;6.376;2022-09-09T07:34:13;17.90;99.90
16477;DHT22;8349;50.928;6.376;2022-09-09T07:36:41;18.00;99.90
16477;DHT22;8349;50.928;6.376;2022-09-09T07:39:12;18.00;99.90
16477;DHT22;8349;50.928;6.376;2022-09-09T07:41:42;18.00;99.90
16477;DHT22;8349;50.928;6.376;2022-09-09T07:44:12;18.00;99.90
16477;DHT22;8349;50.928;6.376;2022-09-09T07:46:41;17.90;99.90
16477;DHT22;8349;50.928;6.376;2022-09-09T07:49:10;17.90;99.90
16477;DHT22;8349;50.928;6.376;2022-09-09T07:51:38;18.00;99.90
16477;DHT22;8349;50.928;6.376;2022-09-09T07:54:08;18.00;99.90
16477;DHT22;8349;50.928;6.376;2022-09-09T07:56:37;18.20;99.90
16477;DHT22;8349;50.928;6.376;2022-09-09T07:59:05;18.30;99.90
16477;DHT22;8349;50.928;6.376;2022-09-09T08:01:34;18.30;99.90
16477;DHT22;8349;50.928;6.376;2022-09-09T08:04:05;18.30;99.90
16477;DHT22;8349;50.928;6.376;2022-09-09T08:06:34;18.30;99.90
16477;DHT22;8349;50.928;6.376;2022-09-09T08:09:03;18.30;99.90
16477;DHT22;8349;50.928;6.376;2022-09-09T08:11:33;18.30;99.90
16477;DHT22;8349;50.928;6.376;2022-09-09T08:14:01;18.30;99.90
16477;DHT22;8349;50.928;6.376;2022-09-09T08:16:30;18.30;99.90
16477;DHT22;8349;50.928;6.376;2022-09-09T08:18:58;18.40;99.90
16477;DHT22;8349;50.928;6.376;2022-09-09T08:21:25;18.40;99.90
16477;DHT22;8349;50.928;6.376;2022-09-09T08:23:55;18.40;99.90
16477;DHT22;8349;50.928;6.376;2022-09-09T08:26:22;18.50;99.90
16477;DHT22;8349;50.928;6.376;2022-09-09T08:28:52;18.60;99.90
16477;DHT22;8349;50.928;6.376;2022-09-09T08:31:20;18.80;99.90
16477;DHT22;8349;50.928;6.376;2022-09-09T08:33:47;18.90;99.90
16477;DHT22;8349;50.928;6.376;2022-09-09T08:36:15;18.70;99.90
16477;DHT22;8349;50.928;6.376;2022-09-09T08:38:42;18.80;99.90
16477;DHT22;8349;50.928;6.376;2022-09-09T08:41:22;18.90;99.90
16477;DHT22;8349;50.928;6.376;2022-09-09T08:43:58;18.90;99.90
16477;DHT22;8349;50.928;6.376;2022-09-09T08:46:29;18.80;99.90
16477;DHT22;8349;50.928;6.376;2022-09-09T08:49:00;18.70;99.90
16477;DHT22;8349;50.928;6.376;2022-09-09T08:51:29;18.60;99.90
16477;DHT22;8349;50.928;6.376;2022-09-09T08:53:57;18.70;99.90
16477;DHT22;8349;50.928;6.376;2022-09-09T08:56:26;18.90;99.90
16477;DHT22;8349;50.928;6.376;2022-09-09T08:58:59;18.80;99.90
16477;DHT22;8349;50.928;6.376;2022-09-09T09:01:42;18.80;99.90
16477;DHT22;8349;50.928;6.376;2022-09-09T09:04:17;18.50;99.90
16477;DHT22;8349;50.928;6.376;2022-09-09T09:06:49;18.30;99.90
16477;DHT22;8349;50.928;6.376;2022-09-09T09:09:18;18.30;99.90
16477;DHT22;8349;50.928;6.376;2022-09-09T09:11:48;18.30;99.90
16477;DHT22;8349;50.928;6.376;2022-09-09T09:14:18;18.50;99.90
16477;DHT22;8349;50.928;6.376;2022-09-09T09:16:48;18.70;99.90
16477;DHT22;8349;50.928;6.376;2022-09-09T09:19:16;18.80;99.90
16477;DHT22;8349;50.928;6.376;2022-09-09T09:21:48;19.00;99.90
16477;DHT22;8349;50.928;6.376;2022-09-09T09:24:16;19.10;99.90
16477;DHT22;8349;50.928;6.376;2022-09-09T09:26:45;19.20;99.90
16477;DHT22;8349;50.928;6.376;2022-09-09T09:29:12;19.10;99.90
16477;DHT22;8349;50.928;6.376;2022-09-09T09:31:43;19.20;99.90
16477;DHT22;8349;50.928;6.376;2022-09-09T09:34:10;19.50;99.90
16477;DHT22;8349;50.928;6.376;2022-09-09T09:36:39;19.50;99.90
16477;DHT22;8349;50.928;6.376;2022-09-09T09:39:10;19.80;99.90
16477;DHT22;8349;50.928;6.376;2022-09-09T09:41:41;20.00;99.90
16477;DHT22;8349;50.928;6.376;2022-09-09T09:44:20;20.20;99.90
16477;DHT22;8349;50.928;6.376;2022-09-09T09:46:49;20.20;99.90
16477;DHT22;8349;50.928;6.376;2022-09-09T09:49:16;20.00;99.90
16477;DHT22;8349;50.928;6.376;2022-09-09T09:51:43;20.00;99.90
16477;DHT22;8349;50.928;6.376;2022-09-09T09:54:14;19.90;99.90
16477;DHT22;8349;50.928;6.376;2022-09-09T09:56:46;19.80;99.90
16477;DHT22;8349;50.928;6.376;2022-09-09T09:59:20;19.70;99.90
16477;DHT22;8349;50.928;6.376;2022-09-09T10:01:47;19.80;99.90
16477;DHT22;8349;50.928;6.376;2022-09-09T10:04:16;20.10;99.90
16477;DHT22;8349;50.928;6.376;2022-09-09T10:06:44;20.30;99.90
16477;DHT22;8349;50.928;6.376;2022-09-09T10:09:20;20.30;99.90
16477;DHT22;8349;50.928;6.376;2022-09-09T10:11:48;20.30;99.90
16477;DHT22;8349;50.928;6.376;2022-09-09T10:14:19;20.20;99.90
16477;DHT22;8349;50.928;6.376;2022-09-09T10:16:53;20.30;99.90
16477;DHT22;8349;50.928;6.376;2022-09-09T10:19:27;20.40;99.90
16477;DHT22;8349;50.928;6.376;2022-09-09T10:22:02;20.20;99.90
16477;DHT22;8349;50.928;6.376;2022-09-09T10:27:18;20.00;99.90
16477;DHT22;8349;50.928;6.376;2022-09-09T10:30:04;19.70;99.90
16477;DHT22;8349;50.928;6.376;2022-09-09T10:35:27;19.60;99.90
16477;DHT22;8349;50.928;6.376;2022-09-09T10:40:38;20.10;99.90
16477;DHT22;8349;50.928;6.376;2022-09-09T10:43:09;20.10;99.90
16477;DHT22;8349;50.928;6.376;2022-09-09T10:45:41;19.90;99.90
16477;DHT22;8349;50.928;6.376;2022-09-09T10:51:09;19.90;99.90
16477;DHT22;8349;50.928;6.376;2022-09-09T10:53:43;20.10;99.90
16477;DHT22;8349;50.928;6.376;2022-09-09T10:56:13;20.40;99.90
16477;DHT22;8349;50.928;6.376;2022-09-09T10:58:42;20.50;99.90
16477;DHT22;8349;50.928;6.376;2022-09-09T11:01:12;20.40;99.90
16477;DHT22;8349;50.928;6.376;2022-09-09T11:03:42;20.30;99.90
16477;DHT22;8349;50.928;6.376;2022-09-09T11:06:12;20.10;99.90
16477;DHT22;8349;50.928;6.376;2022-09-09T11:08:41;20.00;99.90
16477;DHT22;8349;50.928;6.376;2022-09-09T11:11:09;19.80;99.90
16477;DHT22;8349;50.928;6.376;2022-09-09T11:13:38;20.00;99.90
16477;DHT22;8349;50.928;6.376;2022-09-09T11:16:13;19.90;99.90
16477;DHT22;8349;50.928;6.376;2022-09-09T11:18:41;19.60;99.90
16477;DHT22;8349;50.928;6.376;2022-09-09T11:21:12;19.60;99.90
16477;DHT22;8349;50.928;6.376;2022-09-09T11:23:43;19.50;99.90
16477;DHT22;8349;50.928;6.376;2022-09-09T11:26:14;19.30;99.90
16477;DHT22;8349;50.928;6.376;2022-09-09T11:28:46;22.10;99.90
16477;DHT22;8349;50.928;6.376;2022-09-09T11:31:21;21.80;99.90
16477;DHT22;8349;50.928;6.376;2022-09-09T11:33:55;21.70;99.90
16477;DHT22;8349;50.928;6.376;2022-09-09T11:39:12;22.00;99.90
16477;DHT22;8349;50.928;6.376;2022-09-09T11:41:44;24.50;99.90
16477;DHT22;8349;50.928;6.376;2022-09-09T11:44:11;25.20;99.90
16477;DHT22;8349;50.928;6.376;2022-09-09T11:46:39;26.60;99.90
16477;DHT22;8349;50.928;6.376;2022-09-09T11:49:21;24.30;99.90
16477;DHT22;8349;50.928;6.376;2022-09-09T11:51:52;24.60;99.90
16477;DHT22;8349;50.928;6.376;2022-09-09T11:54:31;23.20;99.90
16477;DHT22;8349;50.928;6.376;2022-09-09T11:56:58;22.30;99.90
16477;DHT22;8349;50.928;6.376;2022-09-09T11:59:26;22.90;99.90
16477;DHT22;8349;50.928;6.376;2022-09-09T12:01:54;22.30;99.90
16477;DHT22;8349;50.928;6.376;2022-09-09T12:04:26;21.60;99.90
16477;DHT22;8349;50.928;6.376;2022-09-09T12:06:56;21.80;99.90
16477;DHT22;8349;50.928;6.376;2022-09-09T12:09:25;21.70;99.90
16477;DHT22;8349;50.928;6.376;2022-09-09T12:12:05;21.60;99.90
16477;DHT22;8349;50.928;6.376;2022-09-09T12:14:36;21.00;99.90
16477;DHT22;8349;50.928;6.376;2022-09-09T12:17:10;21.00;99.90
16477;DHT22;8349;50.928;6.376;2022-09-09T12:19:44;20.70;99.90
16477;DHT22;8349;50.928;6.376;2022-09-09T12:22:13;20.70;99.90
16477;DHT22;8349;50.928;6.376;2022-09-09T12:24:43;20.20;99.90
16477;DHT22;8349;50.928;6.376;2022-09-09T12:27:16;19.80;99.90
16477;DHT22;8349;50.928;6.376;2022-09-09T12:29:46;20.00;99.90
16477;DHT22;8349;50.928;6.376;2022-09-09T12:32:14;20.70;99.90
16477;DHT22;8349;50.928;6.376;2022-09-09T12:34:43;20.80;99.90
16477;DHT22;8349;50.928;6.376;2022-09-09T12:37:14;21.10;99.90
16477;DHT22;8349;50.928;6.376;2022-09-09T12:39:44;21.70;99.90
16477;DHT22;8349;50.928;6.376;2022-09-09T12:42:18;21.70;99.90
16477;DHT22;8349;50.928;6.376;2022-09-09T12:44:51;21.40;99.90
16477;DHT22;8349;50.928;6.376;2022-09-09T12:47:18;21.40;99.90
16477;DHT22;8349;50.928;6.376;2022-09-09T12:49:47;21.30;99.90
16477;DHT22;8349;50.928;6.376;2022-09-09T12:52:16;21.70;99.90
16477;DHT22;8349;50.928;6.376;2022-09-09T12:54:44;21.50;99.90
16477;DHT22;8349;50.928;6.376;2022-09-09T12:57:12;21.80;99.90
16477;DHT22;8349;50.928;6.376;2022-09-09T12:59:41;22.30;99.90
16477;DHT22;8349;50.928;6.376;2022-09-09T13:02:14;22.10;99.90
16477;DHT22;8349;50.928;6.376;2022-09-09T13:04:43;21.80;99.90
16477;DHT22;8349;50.928;6.376;2022-09-09T13:07:10;21.20;99.90
16477;DHT22;8349;50.928;6.376;2022-09-09T13:09:37;21.00;99.90
16477;DHT22;8349;50.928;6.376;2022-09-09T13:12:04;20.70;99.90
16477;DHT22;8349;50.928;6.376;2022-09-09T13:14:33;20.60;99.90
16477;DHT22;8349;50.928;6.376;2022-09-09T13:17:04;20.50;99.90
16477;DHT22;8349;50.928;6.376;2022-09-09T13:19:32;20.30;99.90
16477;DHT22;8349;50.928;6.376;2022-09-09T13:22:10;20.10;99.90
16477;DHT22;8349;50.928;6.376;2022-09-09T13:24:37;20.40;99.90
16477;DHT22;8349;50.928;6.376;2022-09-09T13:27:04;20.70;99.90
16477;DHT22;8349;50.928;6.376;2022-09-09T13:29:50;21.50;99.90
16477;DHT22;8349;50.928;6.376;2022-09-09T13:32:18;22.10;99.90
16477;DHT22;8349;50.928;6.376;2022-09-09T13:34:50;24.30;99.90
16477;DHT22;8349;50.928;6.376;2022-09-09T13:37:19;25.40;99.90
16477;DHT22;8349;50.928;6.376;2022-09-09T13:39:50;25.00;99.90
16477;DHT22;8349;50.928;6.376;2022-09-09T13:42:21;24.90;99.90
16477;DHT22;8349;50.928;6.376;2022-09-09T13:44:49;25.80;99.90
16477;DHT22;8349;50.928;6.376;2022-09-09T13:47:17;25.70;99.90
16477;DHT22;8349;50.928;6.376;2022-09-09T13:49:46;24.80;99.90
16477;DHT22;8349;50.928;6.376;2022-09-09T13:52:14;23.50;99.90
16477;DHT22;8349;50.928;6.376;2022-09-09T13:54:42;22.10;99.90
16477;DHT22;8349;50.928;6.376;2022-09-09T13:57:14;21.50;99.90
16477;DHT22;8349;50.928;6.376;2022-09-09T13:59:41;21.10;99.90
16477;DHT22;8349;50.928;6.376;2022-09-09T14:02:08;21.10;99.90
16477;DHT22;8349;50.928;6.376;2022-09-09T14:04:34;21.40;99.90
16477;DHT22;8349;50.928;6.376;2022-09-09T14:07:02;21.20;99.90
16477;DHT22;8349;50.928;6.376;2022-09-09T14:09:29;21.80;99.90
16477;DHT22;8349;50.928;6.376;2022-09-09T14:11:56;22.20;99.90
16477;DHT22;8349;50.928;6.376;2022-09-09T14:14:23;22.30;99.90
16477;DHT22;8349;50.928;6.376;2022-09-09T14:16:50;21.50;99.90
16477;DHT22;8349;50.928;6.376;2022-09-09T14:19:17;21.20;99.90
16477;DHT22;8349;50.928;6.376;2022-09-09T14:21:44;21.10;99.90
16477;DHT22;8349;50.928;6.376;2022-09-09T14:24:12;21.10;99.90
16477;DHT22;8349;50.928;6.376;2022-09-09T14:26:39;21.20;99.90
16477;DHT22;8349;50.928;6.376;2022-09-09T14:29:06;21.20;99.90
16477;DHT22;8349;50.928;6.376;2022-09-09T14:31:33;21.50;99.90
16477;DHT22;8349;50.928;6.376;2022-09-09T14:34:00;21.60;99.90
16477;DHT22;8349;50.928;6.376;2022-09-09T14:36:27;21.70;99.90
16477;DHT22;8349;50.928;6.376;2022-09-09T14:38:54;21.60;99.90
16477;DHT22;8349;50.928;6.376;2022-09-09T14:41:22;21.40;99.90
16477;DHT22;8349;50.928;6.376;2022-09-09T14:43:49;21.30;99.90
16477;DHT22;8349;50.928;6.376;2022-09-09T14:46:17;20.90;99.90
16477;DHT22;8349;50.928;6.376;2022-09-09T14:48:44;20.60;99.90
16477;DHT22;8349;50.928;6.376;2022-09-09T14:51:14;20.30;99.90
16477;DHT22;8349;50.928;6.376;2022-09-09T14:53:42;20.10;99.90
16477;DHT22;8349;50.928;6.376;2022-09-09T14:56:09;18.30;99.90
16477;DHT22;8349;50.928;6.376;2022-09-09T14:58:38;17.20;99.90
16477;DHT22;8349;50.928;6.376;2022-09-09T15:01:05;17.20;99.90
16477;DHT22;8349;50.928;6.376;2022-09-09T15:03:32;17.30;99.90
16477;DHT22;8349;50.928;6.376;2022-09-09T15:06:04;17.50;99.90
16477;DHT22;8349;50.928;6.376;2022-09-09T15:08:30;17.50;99.90
16477;DHT22;8349;50.928;6.376;2022-09-09T15:10:58;17.50;99.90
16477;DHT22;8349;50.928;6.376;2022-09-09T15:13:25;17.50;99.90
16477;DHT22;8349;50.928;6.376;2022-09-09T15:15:53;17.90;99.90
16477;DHT22;8349;50.928;6.376;2022-09-09T15:18:20;18.60;99.90
16477;DHT22;8349;50.928;6.376;2022-09-09T15:20:47;19.20;99.90
16477;DHT22;8349;50.928;6.376;2022-09-09T15:23:14;20.20;99.90
16477;DHT22;8349;50.928;6.376;2022-09-09T15:25:49;20.70;99.90
16477;DHT22;8349;50.928;6.376;2022-09-09T15:28:17;20.00;99.90
16477;DHT22;8349;50.928;6.376;2022-09-09T15:30:46;19.30;99.90
16477;DHT22;8349;50.928;6.376;2022-09-09T15:33:15;18.80;99.90
16477;DHT22;8349;50.928;6.376;2022-09-09T15:35:42;18.50;99.90
16477;DHT22;8349;50.928;6.376;2022-09-09T15:38:08;18.40;99.90
16477;DHT22;8349;50.928;6.376;2022-09-09T15:40:35;18.30;99.90
16477;DHT22;8349;50.928;6.376;2022-09-09T15:43:02;18.40;99.90
16477;DHT22;8349;50.928;6.376;2022-09-09T15:45:30;18.80;99.90
16477;DHT22;8349;50.928;6.376;2022-09-09T15:47:57;19.30;99.90
16477;DHT22;8349;50.928;6.376;2022-09-09T15:50:25;19.10;99.90
16477;DHT22;8349;50.928;6.376;2022-09-09T15:52:52;18.90;99.90
16477;DHT22;8349;50.928;6.376;2022-09-09T15:55:20;18.90;99.90
16477;DHT22;8349;50.928;6.376;2022-09-09T15:57:46;18.80;99.90
16477;DHT22;8349;50.928;6.376;2022-09-09T16:00:14;18.70;99.90
16477;DHT22;8349;50.928;6.376;2022-09-09T16:02:40;18.60;99.90
16477;DHT22;8349;50.928;6.376;2022-09-09T16:05:08;18.70;99.90
16477;DHT22;8349;50.928;6.376;2022-09-09T16:07:36;18.90;99.90
16477;DHT22;8349;50.928;6.376;2022-09-09T16:10:03;19.10;99.90
16477;DHT22;8349;50.928;6.376;2022-09-09T16:12:30;19.10;99.90
16477;DHT22;8349;50.928;6.376;2022-09-09T16:14:57;19.20;99.90